Lucky Five Ranch (79) Station Data

Red Flag Warning: Yes
Fire Weather Zone: 258
SDGE Region: Mountain Empire
Lat/Lon: 32.933/-116.528

Observations

Time Wind Speed/Gust Temp(F) RH Fuel Moist Fuel Temp(F) Dewpt(F) Tmax(F) Tmin(F) Accum Precip 10-min Precip SL Press(mb)
6/27 5:00pm 236 15 G 24 78° 15% - - 28° 82° 69.2° - - -
6/27 4:50pm 235 15 G 25 78° 15% - - 27° 82° 69.2° - - -
6/27 4:40pm 248 16 G 26 79° 15% - - 27° 82° 69.2° - - -
6/27 4:30pm 221 15 G 24 79° 15% - - 28° 82° 69.2° - - -
6/27 4:20pm 246 17 G 26 79° 16% - - 28° 82° 69.2° - - -
6/27 4:10pm 249 18 G 26 78° 17% - - 30° 82° 69.2° - - -
6/27 4:00pm 254 18 G 26 79° 18% - - 31° 82° 69.2° - - -
6/27 3:50pm 250 20 G 30 79° 17% - - 31° 82° 69.2° - - -
6/27 3:40pm 248 20 G 31 79° 17% - - 30° 82° 69.2° - - -
6/27 3:30pm 255 19 G 30 79° 18% - - 31° 82° 69.2° - - -
6/27 3:20pm 252 21 G 32 79° 19% - - 33° 82° 69.2° - - -
6/27 3:10pm 252 19 G 29 80° 20% - - 35° 82° 69.2° - - -
6/27 3:00pm 247 22 G 31 79° 21% - - 35° 82° 69.2° - - -
6/27 2:50pm 246 20 G 31 80° 21% - - 37° 82° 69.2° - - -
6/27 2:40pm 254 22 G 29 80° 21% - - 36° 82° 69.2° - - -
6/27 2:30pm 253 22 G 29 80° 19% - - 34° 82° 69.2° - - -
6/27 2:20pm 257 23 G 30 80° 16% - - 30° 82° 69.2° - - -
6/27 2:10pm 250 21 G 29 80° 14% - - 28° 82° 69.2° - - -
6/27 2:00pm 253 22 G 32 80° 13% - - 26° 82° 69.2° - - -
6/27 1:50pm 257 22 G 34 81° 12% - - 24° 82° 69.2° - - -
6/27 1:40pm 249 18 G 29 81° 13% - - 25° 82° 69.2° - - -
6/27 1:30pm 257 21 G 32 81° 13% - - 25° 81.5° 69.2° - - -
6/27 1:20pm 254 23 G 35 81° 12% - - 24° 81.5° 69.2° - - -
6/27 1:10pm 252 22 G 31 81° 11% - - 22° 81.5° 69.2° - - -
6/27 1:00pm 253 20 G 29 81° 11% - - 22° 81.5° 69.2° - - -
6/27 12:50pm 251 22 G 32 80° 11% - - 22° 80.9° 69.2° - - -
6/27 12:40pm 248 20 G 29 80° 11% - - 21° 80.9° 69.2° - - -
6/27 12:30pm 249 21 G 30 80° 11% - - 22° 80.9° 69.2° - - -
6/27 12:20pm 251 19 G 25 80° 12% - - 22° 80.9° 69.2° - - -
6/27 12:10pm 246 19 G 28 80° 11% - - 21° 80.8° 69.2° - - -
6/27 12:00pm 250 19 G 28 80° 10% - - 20° 80.8° 69.2° - - -
6/27 11:50am 252 20 G 29 80° 10% - - 19° 80° 69.2° - - -
6/27 11:40am 251 21 G 30 79° 10% - - 19° 79.7° 69.2° - - -
6/27 11:30am 250 21 G 32 79° 10% - - 19° 79.3° 69.2° - - -
6/27 11:20am 246 19 G 27 79° 10% - - 19° 79.1° 69.2° - - -
6/27 11:10am 244 20 G 31 78° 10% - - 18° 78.7° 69.2° - - -
6/27 11:00am 244 19 G 26 78° 11% - - 19° 78.4° 69.2° - - -
6/27 10:50am 246 20 G 29 78° 11% - - 19° 78.2° 69.2° - - -
6/27 10:40am 251 23 G 31 78° 11% - - 19° 77.9° 69.2° - - -
6/27 10:30am 250 22 G 30 77° 11% - - 19° 77.9° 69.2° - - -
6/27 10:20am 244 20 G 32 78° 11% - - 18° 77.9° 69.2° - - -
6/27 10:10am 247 22 G 31 78° 10% - - 18° 77.9° 69.2° - - -
6/27 10:00am 251 21 G 29 78° 11% - - 18° 77.9° 69.2° - - -
6/27 9:50am 248 21 G 31 77° 10% - - 17° 77.8° 69.2° - - -
6/27 9:40am 238 17 G 25 77° 10% - - 17° 77.8° 69.2° - - -
6/27 9:30am 248 17 G 25 77° 10% - - 17° 77.6° 69.2° - - -
6/27 9:20am 243 17 G 26 77° 10% - - 16° 77.5° 69.2° - - -
6/27 9:10am 235 17 G 24 77° 10% - - 16° 77° 69.2° - - -
6/27 9:00am 237 17 G 25 76° 10% - - 15° 77° 69.2° - - -
6/27 8:50am 238 17 G 23 77° 9% - - 14° 77° 69.2° - - -
6/27 8:40am 240 18 G 26 77° 9% - - 13° 77° 69.2° - - -
6/27 8:30am 239 19 G 27 77° 9% - - 12° 77° 69.2° - - -
6/27 8:20am 244 15 G 22 76° 10% - - 14° 76.8° 69.2° - - -
6/27 8:10am 265 7 G 12 74° 12% - - 18° 75.2° 69.2° - - -
6/27 8:00am 264 7 G 12 75° 10% - - 15° 75.2° 69.2° - - -
6/27 7:50am 276 6 G 10 75° 10% - - 14° 75° 69.2° - - -
6/27 7:40am 276 5 G 10 74° 10% - - 13° 74.8° 69.2° - - -
6/27 7:30am 285 5 G 9 74° 10% - - 13° 74.7° 69.2° - - -
6/27 7:20am 281 6 G 10 73° 10% - - 14° 74.5° 69.2° - - -
6/27 7:10am 281 5 G 10 73° 10% - - 14° 74.5° 69.2° - - -
6/27 7:00am 228 5 G 10 72° 11% - - 15° 74.5° 69.2° - - -
6/27 6:50am 226 5 G 10 72° 11% - - 15° 74.5° 69.2° - - -
6/27 6:40am 207 6 G 12 72° 11% - - 15° 74.5° 69.2° - - -
6/27 6:30am 211 3 G 9 71° 12% - - 15° 74.5° 69.2° - - -
6/27 6:20am 213 4 G 12 71° 12% - - 15° 74.5° 69.2° - - -
6/27 6:10am 235 5 G 8 70° 12% - - 15° 74.5° 69.2° - - -
6/27 6:00am 237 4 G 11 70° 12% - - 15° 74.5° 69.2° - - -
6/27 5:50am 243 4 G 8 70° 12% - - 15° 74.5° 69.2° - - -
6/27 5:40am 233 7 G 13 71° 11% - - 15° 74.5° 69.2° - - -
6/27 5:30am 215 12 G 18 72° 11% - - 14° 74.5° 69.2° - - -
6/27 5:20am 220 11 G 16 72° 11% - - 14° 74.5° 69.2° - - -
6/27 5:10am 227 13 G 19 71° 11% - - 14° 74.5° 69.2° - - -
6/27 5:00am 217 12 G 17 71° 12% - - 15° 74.5° 69.2° - - -
6/27 4:50am 215 12 G 21 71° 12% - - 15° 74.5° 69.2° - - -
6/27 4:40am 211 12 G 21 71° 12% - - 16° 74.5° 69.2° - - -
6/27 4:30am 197 11 G 16 70° 13% - - 16° 74.5° 69.2° - - -
6/27 4:20am 200 11 G 16 70° 13% - - 17° 74.5° 69.2° - - -
6/27 4:10am 196 12 G 15 70° 13% - - 17° 74.5° 69.3° - - -
6/27 4:00am 193 12 G 17 70° 13% - - 17° 74.5° 69.4° - - -
6/27 3:50am 193 12 G 18 70° 13% - - 17° 74.5° 69.7° - - -
6/27 3:40am 192 13 G 19 70° 13% - - 17° 74.5° 69.7° - - -
6/27 3:30am 196 13 G 18 70° 13% - - 17° 74.5° 69.7° - - -
6/27 3:20am 189 13 G 22 70° 13% - - 17° 74.5° 69.7° - - -
6/27 3:10am 197 13 G 21 71° 12% - - 17° 74.5° 70.2° - - -
6/27 3:00am 210 13 G 22 72° 12% - - 16° 74.5° 71.7° - - -
6/27 2:50am 215 13 G 20 72° 12% - - 16° 74.5° 71.9° - - -
6/27 2:40am 218 14 G 22 73° 11% - - 16° 74.5° 71.9° - - -
6/27 2:30am 228 13 G 23 73° 11% - - 16° 74.5° 71.9° - - -
6/27 2:20am 229 14 G 22 74° 11% - - 15° 74.5° 71.9° - - -
6/27 2:10am 228 14 G 25 73° 11% - - 15° 74.5° 71.9° - - -
6/27 2:00am 225 15 G 23 73° 11% - - 15° 74.5° 71.9° - - -
6/27 1:50am 216 15 G 25 73° 11% - - 14° 74.5° 71.9° - - -
6/27 1:40am 221 16 G 25 73° 10% - - 13° 74.5° 71.9° - - -
6/27 1:30am 218 13 G 19 73° 10% - - 13° 74.5° 71.9° - - -
6/27 1:20am 221 11 G 17 73° 10% - - 13° 74.5° 71.9° - - -
6/27 1:10am 221 12 G 19 73° 10% - - 12° 74.5° 71.9° - - -
6/27 1:00am 220 10 G 20 72° 9% - - 11° 74.5° 71.9° - - -
6/27 12:50am 220 11 G 19 73° 9% - - 11° 74.5° 72.3° - - -
6/27 12:40am 219 10 G 15 73° 9% - - 11° 74.5° 72.3° - - -
6/27 12:30am 220 10 G 17 74° 9% - - 11° 74.5° 72.3° - - -
6/27 12:20am 215 12 G 18 74° 9% - - 11° 74.5° 72.3° - - -
6/27 12:10am 213 11 G 20 73° 9% - - 12° 73.7° 72.3° - - -
6/27 12:00am 198 11 G 23 72° 10% - - 13° 87.9° 71.5° - - -
6/26 11:50pm 188 10 G 19 72° 10% - - 13° 87.9° 71.6° - - -
6/26 11:40pm 190 10 G 21 74° 9% - - 12° 87.9° 71.8° - - -
6/26 11:30pm 220 9 G 22 76° 8% - - 11° 87.9° 71.8° - - -
6/26 11:20pm 238 12 G 20 77° 8% - - 11° 87.9° 71.8° - - -
6/26 11:10pm 249 17 G 33 77° 8% - - 11° 87.9° 71.8° - - -
6/26 11:00pm 249 18 G 31 77° 8% - - 11° 87.9° 71.8° - - -
6/26 10:50pm 254 20 G 32 76° 8% - - 11° 87.9° 71.8° - - -
6/26 10:40pm 266 19 G 29 76° 8% - - 11° 87.9° 71.8° - - -
6/26 10:30pm 268 24 G 35 77° 8% - - 11° 87.9° 71.8° - - -
6/26 10:20pm 264 27 G 34 76° 8% - - 12° 87.9° 71.8° - - -
6/26 10:10pm 265 25 G 36 76° 9% - - 12° 87.9° 71.8° - - -
6/26 10:00pm 269 24 G 32 76° 9% - - 12° 87.9° 71.8° - - -
6/26 9:50pm 271 23 G 30 75° 9% - - 12° 87.9° 71.8° - - -
6/26 9:40pm 271 21 G 27 75° 9% - - 12° 87.9° 71.8° - - -
6/26 9:30pm 271 19 G 26 74° 9% - - 13° 87.9° 71.8° - - -
6/26 9:20pm 262 13 G 21 73° 10% - - 14° 87.9° 71.8° - - -
6/26 9:10pm 267 12 G 16 74° 10% - - 15° 87.9° 72.9° - - -
6/26 9:00pm 271 11 G 13 74° 11% - - 16° 87.9° 73.6° - - -
6/26 8:50pm 281 9 G 13 74° 10% - - 15° 87.9° 74.1° - - -
6/26 8:40pm 280 8 G 13 75° 10% - - 15° 87.9° 74.6° - - -
6/26 8:30pm 284 8 G 12 75° 10% - - 15° 87.9° 74.7° - - -
6/26 8:20pm 281 9 G 13 75° 10% - - 15° 87.9° 74.8° - - -
6/26 8:10pm 277 9 G 16 75° 10% - - 15° 87.9° 75° - - -
6/26 8:00pm 274 11 G 14 76° 10% - - 15° 87.9° 75.4° - - -
6/26 7:50pm 272 12 G 18 76° 10% - - 16° 87.9° 75.8° - - -
6/26 7:40pm 269 14 G 19 77° 10% - - 17° 87.9° 76.9° - - -
6/26 7:30pm 269 15 G 19 78° 12% - - 21° 87.9° 77° - - -
6/26 7:20pm 266 15 G 22 79° 11% - - 21° 87.9° 77° - - -
6/26 7:10pm 266 16 G 23 79° 11% - - 20° 87.9° 77° - - -
6/26 7:00pm 257 16 G 23 80° 11% - - 21° 87.9° 77° - - -
6/26 6:50pm 262 17 G 25 80° 10% - - 20° 87.9° 77° - - -
6/26 6:40pm 264 16 G 23 81° 10% - - 19° 87.9° 77° - - -
6/26 6:30pm 266 17 G 26 81° 9% - - 18° 87.9° 77° - - -
6/26 6:20pm 265 18 G 25 81° 10% - - 19° 87.9° 77° - - -
6/26 6:10pm 265 19 G 27 82° 10% - - 20° 87.9° 77° - - -
6/26 6:00pm 268 20 G 32 82° 10% - - 20° 87.9° 77° - - -
6/26 5:50pm 265 18 G 24 83° 10% - - 22° 87.9° 77° - - -
6/26 5:40pm 269 17 G 26 83° 11% - - 23° 87.9° 77° - - -
6/26 5:30pm 261 18 G 25 83° 11% - - 23° 87.9° 77° - - -
6/26 5:20pm 263 20 G 29 83° 11% - - 22° 87.9° 77° - - -
6/26 5:10pm 268 20 G 27 84° 11% - - 22° 87.9° 77° - - -
6/26 5:00pm 261 20 G 30 84° 11% - - 23° 87.9° 77° - - -
6/26 4:50pm 261 19 G 29 84° 11% - - 23° 87.9° 77° - - -
6/26 4:40pm 261 20 G 27 84° 10% - - 23° 87.9° 77° - - -
6/26 4:30pm 259 19 G 27 85° 10% - - 23° 87.9° 77° - - -
6/26 4:20pm 267 18 G 27 85° 10% - - 22° 87.9° 77° - - -
6/26 4:10pm 266 18 G 28 85° 10% - - 23° 87.9° 77° - - -
6/26 4:00pm 274 16 G 23 86° 10% - - 22° 87.9° 77° - - -
6/26 3:50pm 260 17 G 28 86° 10% - - 22° 87.9° 77° - - -
6/26 3:40pm 264 15 G 25 87° 10% - - 24° 87.9° 77° - - -
6/26 3:30pm 267 16 G 26 86° 10% - - 23° 87.9° 77° - - -
6/26 3:20pm 251 18 G 27 86° 10% - - 24° 87.9° 77° - - -
6/26 3:10pm 265 17 G 24 86° 10% - - 23° 87.9° 77° - - -
6/26 3:00pm 264 19 G 26 86° 10% - - 22° 87.9° 77° - - -
6/26 2:50pm 255 18 G 28 86° 10% - - 24° 87.9° 77° - - -
6/26 2:40pm 263 18 G 28 86° 10% - - 23° 87.9° 77° - - -
6/26 2:30pm 259 18 G 24 86° 10% - - 24° 87.9° 77° - - -
6/26 2:20pm 259 17 G 28 86° 10% - - 23° 87.9° 77° - - -
6/26 2:10pm 265 17 G 23 86° 10% - - 23° 87.9° 77° - - -
6/26 2:00pm 257 18 G 26 86° 10% - - 23° 87.9° 77° - - -
6/26 1:50pm 261 16 G 23 86° 10% - - 23° 87.9° 77° - - -
6/26 1:40pm 257 16 G 24 87° 10% - - 24° 87.9° 77° - - -
6/26 1:30pm 263 13 G 21 87° 10% - - 24° 87.9° 77° - - -
6/26 1:20pm 262 14 G 22 86° 10% - - 24° 87.6° 77° - - -
6/26 1:10pm 264 15 G 24 86° 10% - - 23° 86.8° 77° - - -
6/26 1:00pm 263 15 G 24 86° 10% - - 23° 86.8° 77° - - -
6/26 12:50pm 250 16 G 23 86° 10% - - 24° 86.8° 77° - - -
6/26 12:40pm 251 17 G 24 86° 10% - - 24° 86.8° 77° - - -
6/26 12:30pm 254 16 G 22 86° 11% - - 26° 86.8° 77° - - -
6/26 12:20pm 256 15 G 22 86° 11% - - 25° 86.5° 77° - - -
6/26 12:10pm 255 13 G 20 86° 11% - - 26° 86.5° 77° - - -
6/26 12:00pm 252 14 G 24 85° 12% - - 27° 86.5° 77° - - -
6/26 11:50am 259 11 G 17 85° 12% - - 28° 86.5° 77° - - -
6/26 11:40am 252 13 G 19 85° 12% - - 28° 86.5° 77° - - -
6/26 11:30am 261 11 G 19 85° 12% - - 27° 86.5° 77° - - -
6/26 11:20am 261 8 G 20 86° 12% - - 28° 86.5° 77° - - -
6/26 11:10am 265 10 G 18 85° 12% - - 27° 86° 77° - - -
6/26 11:00am 261 10 G 17 85° 13% - - 28° 85.2° 77° - - -
6/26 10:50am 247 12 G 22 85° 13% - - 28° 85.2° 77° - - -
6/26 10:40am 254 9 G 18 84° 12% - - 27° 84.9° 77° - - -
6/26 10:30am 272 8 G 20 85° 12% - - 27° 84.9° 77° - - -
6/26 10:20am 274 7 G 12 84° 12% - - 26° 84.6° 77° - - -
6/26 10:10am 267 8 G 14 84° 12% - - 26° 84.6° 77° - - -
6/26 10:00am 273 5 G 10 84° 12% - - 26° 84.6° 77° - - -
6/26 9:50am 259 8 G 14 83° 12% - - 25° 83.9° 77° - - -
6/26 9:40am 259 7 G 12 83° 12% - - 25° 83.9° 77° - - -
6/26 9:30am 239 4 G 8 83° 12% - - 26° 83.9° 77° - - -
6/26 9:20am 248 6 G 11 83° 12% - - 26° 83.9° 77° - - -
6/26 9:10am 241 4 G 6 83° 13% - - 26° 83.9° 77° - - -
6/26 9:00am 235 2 G 5 83° 13% - - 27° 83.9° 77° - - -
6/26 8:50am 230 3 G 8 83° 12% - - 25° 83.4° 77° - - -
6/26 8:40am 265 2 G 5 83° 13% - - 26° 83.3° 77° - - -
6/26 8:30am 170 2 G 5 83° 13% - - 26° 83.2° 77° - - -
6/26 8:20am 22 2 G 4 82° 12% - - 24° 82.9° 77° - - -
6/26 8:10am 85 3 G 7 80° 12% - - 24° 82.3° 77° - - -
6/26 8:00am 17 3 G 6 80° 12% - - 24° 82.3° 77° - - -
6/26 7:50am 85 4 G 7 81° 12% - - 24° 82.3° 77° - - -
6/26 7:40am 62 3 G 5 81° 12% - - 24° 82.3° 77° - - -
6/26 7:30am 106 2 G 4 82° 12% - - 24° 82.3° 77° - - -
6/26 7:20am 64 2 G 4 80° 12% - - 23° 81.6° 77° - - -
6/26 7:10am 102 3 G 7 81° 12% - - 23° 81.6° 77° - - -
6/26 7:00am 76 3 G 6 80° 12% - - 23° 80.8° 77° - - -
6/26 6:50am 79 2 G 6 80° 12% - - 22° 80.8° 77° - - -
6/26 6:40am 86 2 G 4 79° 12% - - 22° 80.6° 77° - - -
6/26 6:30am 95 2 G 4 79° 12% - - 22° 80.6° 77° - - -
6/26 6:20am 111 2 G 4 79° 12% - - 22° 80.6° 77° - - -
6/26 6:10am 88 3 G 5 78° 12% - - 23° 80.6° 77° - - -
6/26 6:00am 91 2 G 5 79° 12% - - 23° 80.6° 77° - - -